Time;durP1;ratioP1;P1;durP2;ratioP2;P2;SDS_P1;SDS_P2;PMS_P1;PMS_P2;Temp;Humidity;BMP_temperature;BMP_pressure;BME280_temperature;BME280_humidity;BME280_pressure;Samples;Min_cycle;Max_cycle;Signal;HPM_P1;HPM_P2
2021/12/23 00:01:42;;;;;;;46.30;14.00;;;;;;;;;;5015890;28;20038;-86
2021/12/23 00:04:12;;;;;;;50.53;13.05;;;;;;;;;;5015621;28;20038;-86
2021/12/23 00:06:41;;;;;;;52.53;13.82;;;;;;;;;;5016809;28;20033;-85
2021/12/23 00:09:07;;;;;;;50.10;11.52;;;;;;;;;;5015339;28;20030;-86
2021/12/23 00:11:34;;;;;;;47.22;13.43;;;;;;;;;;5015717;28;20034;-85
2021/12/23 00:14:03;;;;;;;59.40;15.00;;;;;;;;;;5015327;28;20510;-87
2021/12/23 00:17:07;;;;;;;49.42;13.63;;;;;;;;;;5015408;28;20108;-86
2021/12/23 00:19:37;;;;;;;53.00;12.13;;;;;;;;;;5016020;28;20030;-86
2021/12/23 00:24:49;;;;;;;45.85;12.57;;;;;;;;;;5016760;28;20088;-86
2021/12/23 00:27:16;;;;;;;47.65;12.98;;;;;;;;;;5015340;28;20036;-86
2021/12/23 00:29:42;;;;;;;45.00;13.48;;;;;;;;;;5014933;28;20041;-85
2021/12/23 00:32:09;;;;;;;33.35;10.88;;;;;;;;;;5015082;28;20030;-86
2021/12/23 00:34:38;;;;;;;44.35;12.40;;;;;;;;;;5015158;28;20034;-86
2021/12/23 00:37:09;;;;;;;48.70;13.52;;;;;;;;;;5015189;28;20042;-86
2021/12/23 00:39:35;;;;;;;50.30;12.20;;;;;;;;;;5015081;28;20492;-86
2021/12/23 00:42:07;;;;;;;56.42;11.25;;;;;;;;;;5014713;28;20026;-85
2021/12/23 00:44:35;;;;;;;46.60;13.20;;;;;;;;;;5015066;28;20399;-86
2021/12/23 00:47:01;;;;;;;39.20;10.93;;;;;;;;;;5014926;28;20030;-86
2021/12/23 00:49:27;;;;;;;45.70;11.73;;;;;;;;;;5014902;28;20515;-85
2021/12/23 00:51:54;;;;;;;49.33;13.00;;;;;;;;;;5014629;28;20076;-86
2021/12/23 00:54:20;;;;;;;38.63;13.55;;;;;;;;;;5014792;28;20042;-87
2021/12/23 00:56:49;;;;;;;43.70;12.20;;;;;;;;;;5014672;28;20034;-87
2021/12/23 00:59:15;;;;;;;48.10;13.80;;;;;;;;;;5014482;28;20026;-86
2021/12/23 01:01:42;;;;;;;49.33;14.05;;;;;;;;;;5013627;28;20473;-85
2021/12/23 01:04:08;;;;;;;50.03;15.77;;;;;;;;;;5015777;28;20494;-86
2021/12/23 01:06:35;;;;;;;47.55;16.02;;;;;;;;;;5014446;28;20041;-86
2021/12/23 01:09:01;;;;;;;64.22;19.60;;;;;;;;;;5014205;28;20503;-85
2021/12/23 01:11:28;;;;;;;62.30;22.85;;;;;;;;;;5014352;28;20038;-86
2021/12/23 01:14:13;;;;;;;75.00;23.48;;;;;;;;;;5014404;28;20034;-86
2021/12/23 01:19:16;;;;;;;58.30;14.75;;;;;;;;;;5015563;28;20030;-86
2021/12/23 01:21:42;;;;;;;48.72;13.80;;;;;;;;;;5014103;28;20031;-86
2021/12/23 01:24:10;;;;;;;48.08;13.60;;;;;;;;;;5014203;28;20041;-86
2021/12/23 01:26:36;;;;;;;59.13;14.02;;;;;;;;;;5014216;28;20041;-86
2021/12/23 01:29:03;;;;;;;47.83;12.65;;;;;;;;;;5013929;28;20045;-86
2021/12/23 01:31:30;;;;;;;57.20;14.52;;;;;;;;;;5014163;28;20065;-86
2021/12/23 01:33:56;;;;;;;56.08;12.55;;;;;;;;;;5014041;28;20097;-86
2021/12/23 01:36:24;;;;;;;55.95;13.23;;;;;;;;;;5015069;28;20125;-85
2021/12/23 01:38:50;;;;;;;51.60;14.32;;;;;;;;;;5013657;28;20548;-85
2021/12/23 01:41:17;;;;;;;46.92;13.68;;;;;;;;;;5013814;28;20034;-85
2021/12/23 01:43:43;;;;;;;46.78;13.60;;;;;;;;;;5013705;28;20034;-86
2021/12/23 01:46:10;;;;;;;53.10;17.05;;;;;;;;;;5013669;28;20120;-86
2021/12/23 01:48:36;;;;;;;53.03;19.52;;;;;;;;;;5013813;28;20487;-86
2021/12/23 01:51:03;;;;;;;52.72;20.83;;;;;;;;;;5014026;28;20451;-86
2021/12/23 01:53:29;;;;;;;63.38;20.92;;;;;;;;;;5013636;28;20060;-86
2021/12/23 01:55:55;;;;;;;46.78;17.38;;;;;;;;;;5013604;28;20034;-86
2021/12/23 01:58:22;;;;;;;52.75;14.90;;;;;;;;;;5014998;28;20037;-86
2021/12/23 02:00:50;;;;;;;44.17;15.10;;;;;;;;;;5015002;28;20477;-86
2021/12/23 02:03:16;;;;;;;40.97;13.70;;;;;;;;;;5013530;28;20105;-86
2021/12/23 02:05:43;;;;;;;47.88;14.50;;;;;;;;;;5013341;28;20034;-86
2021/12/23 02:08:10;;;;;;;46.70;14.27;;;;;;;;;;5013368;28;20034;-86
2021/12/23 02:10:36;;;;;;;51.78;13.63;;;;;;;;;;5013152;28;20128;-86
2021/12/23 02:13:03;;;;;;;59.42;15.88;;;;;;;;;;5013010;28;20523;-86
2021/12/23 02:15:29;;;;;;;50.65;19.42;;;;;;;;;;5013478;28;20042;-86
2021/12/23 02:17:56;;;;;;;60.03;17.90;;;;;;;;;;5013147;28;20104;-86
2021/12/23 02:20:28;;;;;;;56.83;15.70;;;;;;;;;;5013195;28;20034;-86
2021/12/23 02:22:55;;;;;;;52.78;15.52;;;;;;;;;;5013178;28;20026;-85
2021/12/23 02:25:21;;;;;;;48.38;16.02;;;;;;;;;;5014366;28;20030;-86
2021/12/23 02:27:48;;;;;;;44.97;14.32;;;;;;;;;;5013190;28;20054;-85
2021/12/23 02:30:22;;;;;;;50.58;15.95;;;;;;;;;;5012973;28;20030;-85
2021/12/23 02:32:48;;;;;;;47.08;14.88;;;;;;;;;;5013253;28;20431;-86
2021/12/23 02:35:15;;;;;;;47.03;13.82;;;;;;;;;;5013003;28;20121;-86
2021/12/23 02:37:42;;;;;;;50.72;17.02;;;;;;;;;;5012993;28;20404;-85
2021/12/23 02:40:09;;;;;;;52.08;15.43;;;;;;;;;;5014201;28;20034;-85
2021/12/23 02:42:36;;;;;;;49.42;15.75;;;;;;;;;;5013201;28;20366;-86
2021/12/23 02:45:04;;;;;;;48.75;14.98;;;;;;;;;;5012974;28;20034;-87
2021/12/23 02:47:31;;;;;;;39.47;14.23;;;;;;;;;;5013024;28;20088;-86
2021/12/23 02:49:58;;;;;;;48.22;14.38;;;;;;;;;;5012989;28;20053;-86
2021/12/23 02:52:25;;;;;;;53.33;15.23;;;;;;;;;;5013780;28;20050;-86
2021/12/23 02:54:55;;;;;;;45.78;14.38;;;;;;;;;;5012821;28;20040;-86
2021/12/23 02:57:23;;;;;;;47.40;14.60;;;;;;;;;;5012695;28;20030;-85
2021/12/23 02:59:49;;;;;;;49.22;14.70;;;;;;;;;;5012835;28;20092;-86
2021/12/23 03:02:15;;;;;;;47.72;15.43;;;;;;;;;;5012686;28;20404;-86
2021/12/23 03:04:42;;;;;;;65.30;16.65;;;;;;;;;;5012591;28;20034;-86
2021/12/23 03:07:08;;;;;;;62.45;15.93;;;;;;;;;;5012725;28;20048;-86
2021/12/23 03:09:34;;;;;;;69.28;17.80;;;;;;;;;;5012527;28;20128;-86
2021/12/23 03:12:00;;;;;;;65.00;18.00;;;;;;;;;;5012645;28;20124;-85
2021/12/23 03:14:27;;;;;;;65.60;19.45;;;;;;;;;;5012788;28;20049;-86
2021/12/23 03:16:53;;;;;;;68.15;20.67;;;;;;;;;;5013861;28;20041;-86
2021/12/23 03:19:19;;;;;;;68.25;20.52;;;;;;;;;;5012427;28;20033;-85
2021/12/23 03:21:46;;;;;;;75.55;24.80;;;;;;;;;;5013874;28;20034;-85
2021/12/23 03:24:15;;;;;;;82.55;24.50;;;;;;;;;;5015579;28;20030;-85
2021/12/23 03:26:41;;;;;;;61.45;21.60;;;;;;;;;;5016259;28;20041;-86
2021/12/23 03:29:11;;;;;;;70.63;23.02;;;;;;;;;;5016313;28;20053;-86
2021/12/23 03:31:37;;;;;;;70.35;23.55;;;;;;;;;;5017371;28;20084;-86
2021/12/23 03:34:03;;;;;;;64.93;21.52;;;;;;;;;;5016341;28;20036;-85
2021/12/23 03:36:30;;;;;;;58.38;20.40;;;;;;;;;;5016241;28;20053;-86
2021/12/23 03:38:56;;;;;;;61.20;19.85;;;;;;;;;;5016003;28;20030;-88
2021/12/23 03:41:23;;;;;;;65.13;21.52;;;;;;;;;;5015740;28;20129;-86
2021/12/23 03:43:49;;;;;;;54.10;20.52;;;;;;;;;;5017463;28;20034;-86
2021/12/23 03:46:16;;;;;;;60.20;18.60;;;;;;;;;;5015987;28;20060;-86
2021/12/23 03:48:42;;;;;;;51.92;19.27;;;;;;;;;;5016003;28;20034;-86
2021/12/23 03:51:08;;;;;;;70.82;20.88;;;;;;;;;;5015884;28;20062;-86
2021/12/23 03:53:35;;;;;;;67.70;22.58;;;;;;;;;;5015679;28;20487;-86
2021/12/23 03:56:01;;;;;;;84.63;26.00;;;;;;;;;;5016871;28;20034;-86
2021/12/23 03:58:27;;;;;;;64.45;22.88;;;;;;;;;;5015648;28;20045;-86
2021/12/23 04:00:53;;;;;;;66.25;20.83;;;;;;;;;;5015636;28;20037;-85
2021/12/23 04:03:20;;;;;;;65.25;17.85;;;;;;;;;;5015632;28;20030;-86
2021/12/23 04:05:46;;;;;;;54.85;16.08;;;;;;;;;;5016647;28;20093;-86
2021/12/23 04:08:12;;;;;;;57.05;16.92;;;;;;;;;;5016610;28;20077;-86
2021/12/23 04:10:39;;;;;;;65.47;17.25;;;;;;;;;;5015155;28;20436;-86
2021/12/23 04:13:06;;;;;;;52.47;15.10;;;;;;;;;;5016775;28;20092;-86
2021/12/23 04:15:32;;;;;;;58.60;16.10;;;;;;;;;;5015375;28;20096;-86
2021/12/23 04:17:59;;;;;;;70.60;16.80;;;;;;;;;;5016743;28;20055;-86
2021/12/23 04:20:32;;;;;;;59.40;16.33;;;;;;;;;;5015211;28;20029;-86
2021/12/23 04:22:59;;;;;;;50.58;16.50;;;;;;;;;;5016580;28;20069;-86
2021/12/23 04:25:27;;;;;;;83.82;20.00;;;;;;;;;;5016923;28;20540;-86
2021/12/23 04:27:55;;;;;;;63.83;17.63;;;;;;;;;;5015157;28;20026;-86
2021/12/23 04:30:22;;;;;;;65.80;21.75;;;;;;;;;;4982823;28;20038;-86
2021/12/23 04:32:48;;;;;;;71.18;20.88;;;;;;;;;;5015428;28;20037;-87
2021/12/23 04:35:15;;;;;;;78.20;21.38;;;;;;;;;;5014703;28;20041;-87
2021/12/23 04:37:41;;;;;;;81.00;23.05;;;;;;;;;;5015103;28;20038;-86
2021/12/23 04:40:09;;;;;;;100.82;22.15;;;;;;;;;;5015045;28;20041;-86
2021/12/23 04:42:36;;;;;;;79.35;21.70;;;;;;;;;;5014898;28;20034;-87
2021/12/23 04:45:03;;;;;;;76.40;23.65;;;;;;;;;;5014974;28;20087;-86
2021/12/23 04:47:29;;;;;;;99.88;28.40;;;;;;;;;;5014768;28;20026;-86
2021/12/23 04:49:56;;;;;;;90.68;27.40;;;;;;;;;;5014929;28;20062;-86
2021/12/23 04:52:22;;;;;;;89.18;25.63;;;;;;;;;;5014963;28;20030;-86
2021/12/23 04:54:49;;;;;;;90.38;23.27;;;;;;;;;;5014683;28;20048;-86
2021/12/23 04:57:15;;;;;;;111.53;27.88;;;;;;;;;;5014623;28;20033;-86
2021/12/23 04:59:41;;;;;;;97.65;27.25;;;;;;;;;;5014431;28;20052;-86
2021/12/23 05:02:07;;;;;;;89.70;26.08;;;;;;;;;;5014621;28;20108;-86
2021/12/23 05:04:34;;;;;;;103.07;28.88;;;;;;;;;;5014279;28;20397;-86
2021/12/23 05:07:00;;;;;;;106.25;28.02;;;;;;;;;;5014478;28;20040;-87
2021/12/23 05:09:26;;;;;;;87.53;29.65;;;;;;;;;;5014099;28;20046;-86
2021/12/23 05:11:52;;;;;;;90.63;30.25;;;;;;;;;;5014486;28;20030;-86
2021/12/23 05:14:19;;;;;;;99.22;28.65;;;;;;;;;;5014328;28;20125;-87
2021/12/23 05:16:45;;;;;;;109.88;29.63;;;;;;;;;;5014185;28;20483;-86
2021/12/23 05:19:11;;;;;;;92.82;29.77;;;;;;;;;;5014297;28;20040;-87
2021/12/23 05:21:38;;;;;;;107.38;28.73;;;;;;;;;;5013958;28;20381;-86
2021/12/23 05:24:04;;;;;;;111.88;29.58;;;;;;;;;;5014094;28;20037;-86
2021/12/23 05:26:30;;;;;;;89.82;27.35;;;;;;;;;;5014050;28;20440;-86
2021/12/23 05:28:57;;;;;;;96.22;26.10;;;;;;;;;;5015407;28;20030;-86
2021/12/23 05:31:23;;;;;;;103.88;28.33;;;;;;;;;;5015294;28;20038;-86
2021/12/23 05:33:49;;;;;;;104.68;28.75;;;;;;;;;;5014001;28;20088;-87
2021/12/23 05:36:16;;;;;;;98.78;29.85;;;;;;;;;;5013874;28;20038;-86
2021/12/23 05:38:42;;;;;;;112.82;30.58;;;;;;;;;;5013872;28;20092;-86
2021/12/23 05:41:08;;;;;;;102.97;29.40;;;;;;;;;;5013758;28;20033;-86
2021/12/23 05:43:34;;;;;;;101.00;29.95;;;;;;;;;;5013835;28;20040;-86
2021/12/23 05:46:01;;;;;;;100.60;29.85;;;;;;;;;;5013181;28;20125;-87
2021/12/23 05:48:27;;;;;;;98.82;31.05;;;;;;;;;;5013599;28;20030;-86
2021/12/23 05:50:53;;;;;;;108.50;32.15;;;;;;;;;;5013604;28;20396;-86
2021/12/23 05:53:20;;;;;;;90.88;29.15;;;;;;;;;;5013686;28;20062;-87
2021/12/23 05:55:47;;;;;;;101.05;29.70;;;;;;;;;;5013444;28;20096;-86
2021/12/23 05:58:13;;;;;;;88.72;26.77;;;;;;;;;;5013551;28;20507;-86
2021/12/23 06:00:39;;;;;;;100.65;25.10;;;;;;;;;;5013483;28;20435;-86
2021/12/23 06:03:06;;;;;;;109.75;31.95;;;;;;;;;;5014762;28;20030;-86
2021/12/23 06:05:32;;;;;;;106.55;36.13;;;;;;;;;;5014376;28;20044;-86
2021/12/23 06:07:58;;;;;;;109.88;34.17;;;;;;;;;;5013445;28;20112;-87
2021/12/23 06:10:25;;;;;;;102.97;33.28;;;;;;;;;;5013228;28;20053;-86
2021/12/23 06:12:51;;;;;;;84.32;26.00;;;;;;;;;;5013316;28;20124;-86
2021/12/23 06:15:17;;;;;;;97.40;27.63;;;;;;;;;;5013195;28;20060;-86
2021/12/23 06:17:45;;;;;;;83.30;26.77;;;;;;;;;;5013117;28;20038;-86
2021/12/23 06:20:12;;;;;;;81.18;22.80;;;;;;;;;;5013228;28;20042;-86
2021/12/23 06:22:39;;;;;;;95.75;24.95;;;;;;;;;;5013540;28;20034;-86
2021/12/23 06:25:07;;;;;;;98.03;28.10;;;;;;;;;;5013255;28;20064;-86
2021/12/23 06:27:34;;;;;;;87.75;24.60;;;;;;;;;;5013142;28;20121;-86
2021/12/23 06:30:00;;;;;;;99.13;26.50;;;;;;;;;;5014208;28;20048;-86
2021/12/23 06:32:26;;;;;;;100.53;27.55;;;;;;;;;;5013043;28;20034;-86
2021/12/23 06:47:51;;;;;;;69.40;16.75;;;;;;;;;;5944255;22;20188;-86
2021/12/23 06:50:20;;;;;;;74.68;17.58;;;;;;;;;;5034165;28;20408;-85
2021/12/23 06:52:46;;;;;;;63.20;16.83;;;;;;;;;;5016469;28;20044;-86
2021/12/23 06:55:13;;;;;;;79.07;15.93;;;;;;;;;;5016232;28;20449;-87
2021/12/23 06:57:40;;;;;;;72.65;16.27;;;;;;;;;;5017239;28;20029;-85
2021/12/23 07:00:07;;;;;;;77.82;16.83;;;;;;;;;;5020335;28;20057;-87
2021/12/23 07:02:38;;;;;;;71.20;14.25;;;;;;;;;;5020401;28;20033;-87
2021/12/23 07:05:04;;;;;;;57.22;13.85;;;;;;;;;;5020319;28;20068;-86
2021/12/23 07:07:40;;;;;;;66.63;14.73;;;;;;;;;;5020197;28;20033;-87
2021/12/23 07:10:06;;;;;;;64.45;14.98;;;;;;;;;;5020454;28;20083;-86
2021/12/23 07:12:33;;;;;;;60.35;12.77;;;;;;;;;;5020120;28;20488;-86
2021/12/23 07:14:59;;;;;;;77.03;17.15;;;;;;;;;;5037819;28;20033;-86
2021/12/23 07:17:25;;;;;;;72.45;17.55;;;;;;;;;;5037654;28;20087;-87
2021/12/23 07:19:52;;;;;;;88.97;19.35;;;;;;;;;;5019942;28;20397;-86
2021/12/23 07:22:18;;;;;;;83.53;18.23;;;;;;;;;;5019861;28;20036;-86
2021/12/23 07:24:44;;;;;;;63.00;16.52;;;;;;;;;;5019753;28;20381;-86
2021/12/23 07:27:11;;;;;;;58.25;14.82;;;;;;;;;;5019771;28;20037;-86
2021/12/23 07:29:37;;;;;;;73.75;17.30;;;;;;;;;;5037207;28;20044;-86
2021/12/23 07:32:05;;;;;;;64.45;13.48;;;;;;;;;;5019767;28;20504;-86
2021/12/23 07:34:32;;;;;;;69.88;15.00;;;;;;;;;;5019789;28;20038;-87
2021/12/23 07:36:58;;;;;;;72.65;15.65;;;;;;;;;;5019595;28;20025;-86
2021/12/23 07:39:25;;;;;;;62.13;11.63;;;;;;;;;;5019526;28;20030;-86
2021/12/23 07:41:51;;;;;;;60.13;12.13;;;;;;;;;;5019588;28;20026;-87
2021/12/23 07:44:20;;;;;;;53.95;11.65;;;;;;;;;;5019344;28;20144;-86
2021/12/23 07:46:47;;;;;;;65.07;12.13;;;;;;;;;;5019557;28;20037;-87
2021/12/23 07:49:13;;;;;;;63.17;12.05;;;;;;;;;;5015846;28;20049;-87
2021/12/23 07:51:40;;;;;;;57.45;9.75;;;;;;;;;;5019346;28;20400;-86
2021/12/23 07:54:07;;;;;;;60.47;11.52;;;;;;;;;;5019509;28;20397;-86
2021/12/23 07:56:33;;;;;;;55.88;10.38;;;;;;;;;;5019522;28;20034;-87
2021/12/23 07:58:59;;;;;;;55.63;11.52;;;;;;;;;;5019446;28;20120;-87
2021/12/23 08:01:26;;;;;;;75.35;12.23;;;;;;;;;;5019409;28;20107;-87
2021/12/23 08:03:52;;;;;;;54.35;12.68;;;;;;;;;;5019269;28;20025;-87
2021/12/23 08:06:19;;;;;;;58.72;12.15;;;;;;;;;;5019041;28;20107;-85
2021/12/23 08:08:45;;;;;;;51.92;10.77;;;;;;;;;;5019112;28;20036;-87
2021/12/23 08:11:12;;;;;;;64.40;11.13;;;;;;;;;;5018767;28;20045;-86
2021/12/23 08:13:39;;;;;;;65.57;12.18;;;;;;;;;;5019364;28;20080;-86
2021/12/23 08:16:05;;;;;;;72.20;12.43;;;;;;;;;;5395117;22;20486;-87
2021/12/23 08:36:42;;;;;;;71.85;16.45;;;;;;;;;;6170409;22;20101;-88
2021/12/23 08:41:45;;;;;;;61.13;15.73;;;;;;;;;;5453328;22;20139;-86
2021/12/23 08:44:11;;;;;;;70.63;14.55;;;;;;;;;;5058286;28;20039;-86
2021/12/23 08:46:38;;;;;;;67.68;15.68;;;;;;;;;;5057976;28;20040;-86
2021/12/23 08:49:05;;;;;;;83.55;18.67;;;;;;;;;;5057750;28;20033;-86
2021/12/23 08:51:35;;;;;;;81.43;21.40;;;;;;;;;;5057753;28;20032;-86
2021/12/23 08:54:01;;;;;;;86.10;22.67;;;;;;;;;;5057730;28;20028;-86
2021/12/23 08:56:28;;;;;;;82.25;21.50;;;;;;;;;;5057604;28;20094;-86
2021/12/23 08:58:54;;;;;;;91.88;23.23;;;;;;;;;;5057547;28;20495;-86
2021/12/23 09:01:20;;;;;;;85.75;22.13;;;;;;;;;;5057434;28;20028;-87
2021/12/23 09:03:46;;;;;;;89.50;22.05;;;;;;;;;;5057309;28;20039;-86
2021/12/23 09:06:13;;;;;;;89.18;22.27;;;;;;;;;;5057487;28;20051;-86
2021/12/23 09:08:39;;;;;;;88.90;24.85;;;;;;;;;;5057381;28;20123;-86
2021/12/23 09:11:05;;;;;;;100.97;24.98;;;;;;;;;;5057412;28;20033;-86
2021/12/23 09:13:32;;;;;;;96.07;26.60;;;;;;;;;;5057323;28;20033;-86
2021/12/23 09:15:59;;;;;;;85.15;25.63;;;;;;;;;;5057317;28;20036;-86
2021/12/23 09:18:27;;;;;;;89.07;26.85;;;;;;;;;;5057475;28;20044;-86
2021/12/23 09:20:53;;;;;;;101.13;27.85;;;;;;;;;;5056508;28;20115;-86
2021/12/23 09:23:20;;;;;;;104.75;28.02;;;;;;;;;;5056988;28;20025;-86
2021/12/23 09:25:48;;;;;;;92.93;27.27;;;;;;;;;;5057227;28;20044;-86
2021/12/23 09:28:26;;;;;;;98.90;29.25;;;;;;;;;;5056977;28;20036;-86
2021/12/23 09:33:39;;;;;;;91.82;27.65;;;;;;;;;;5074984;28;20117;-86
2021/12/23 09:36:05;;;;;;;93.38;29.98;;;;;;;;;;5056930;28;20032;-86
2021/12/23 09:38:32;;;;;;;100.38;30.70;;;;;;;;;;5056724;28;20033;-86
2021/12/23 09:41:02;;;;;;;87.07;28.25;;;;;;;;;;5056649;28;20054;-86
2021/12/23 09:43:30;;;;;;;104.55;28.90;;;;;;;;;;5056838;28;20040;-86
2021/12/23 09:45:56;;;;;;;107.00;27.77;;;;;;;;;;5056529;28;20040;-87
2021/12/23 09:48:23;;;;;;;86.05;25.98;;;;;;;;;;5074894;28;20025;-86
2021/12/23 09:50:51;;;;;;;96.28;27.88;;;;;;;;;;5074472;28;20390;-86
2021/12/23 09:53:19;;;;;;;96.85;27.00;;;;;;;;;;5056648;28;20478;-86
2021/12/23 09:55:46;;;;;;;110.53;26.98;;;;;;;;;;5056430;28;20079;-85
2021/12/23 10:00:46;;;;;;;102.25;26.42;;;;;;;;;;5907207;22;20459;-85
2021/12/23 10:38:12;;;;;;;102.10;27.00;;;;;;;;;;5054079;28;20172;-87
2021/12/23 10:40:39;;;;;;;94.07;26.83;;;;;;;;;;5053906;28;20112;-87
2021/12/23 10:43:08;;;;;;;83.75;22.75;;;;;;;;;;5036136;28;20493;-87
2021/12/23 10:45:57;;;;;;;93.20;24.92;;;;;;;;;;5053954;28;20025;-86
2021/12/23 10:48:30;;;;;;;92.97;24.13;;;;;;;;;;5036044;28;20025;-86
2021/12/23 10:51:07;;;;;;;88.25;23.67;;;;;;;;;;5036002;28;20037;-86
2021/12/23 10:53:46;;;;;;;90.55;23.55;;;;;;;;;;5036046;28;20060;-87
2021/12/23 10:59:09;;;;;;;94.35;24.52;;;;;;;;;;5053783;28;20095;-86
2021/12/23 11:01:39;;;;;;;81.53;24.48;;;;;;;;;;5053885;28;20025;-87
2021/12/23 11:04:07;;;;;;;80.50;26.88;;;;;;;;;;5035794;28;20541;-86
2021/12/23 11:06:41;;;;;;;94.97;27.58;;;;;;;;;;5035920;28;20033;-87
2021/12/23 11:42:26;;;;;;;88.82;23.27;;;;;;;;;;5033520;28;20034;-87
2021/12/23 11:44:35;;;;;;;80.03;21.83;;;;;;;;;;5031215;28;20026;-86
2021/12/23 11:47:08;;;;;;;78.63;22.00;;;;;;;;;;5019016;28;20041;-87
2021/12/23 11:49:38;;;;;;;83.93;20.30;;;;;;;;;;5019345;28;20064;-86
2021/12/23 11:52:05;;;;;;;71.22;18.25;;;;;;;;;;5019268;28;20033;-87
2021/12/23 11:54:34;;;;;;;73.63;16.92;;;;;;;;;;5019203;28;20053;-87
2021/12/23 11:57:09;;;;;;;72.13;19.70;;;;;;;;;;5019219;28;20499;-87
2021/12/23 11:59:37;;;;;;;83.20;23.38;;;;;;;;;;5019165;28;20472;-86
2021/12/23 12:02:12;;;;;;;84.13;23.40;;;;;;;;;;5019071;28;20033;-87
2021/12/23 12:04:38;;;;;;;90.53;23.77;;;;;;;;;;5019141;28;20029;-87
2021/12/23 12:07:14;;;;;;;84.53;24.85;;;;;;;;;;5018827;28;20076;-86
2021/12/23 12:09:53;;;;;;;80.53;23.80;;;;;;;;;;5018535;28;20037;-86
2021/12/23 12:12:20;;;;;;;94.45;26.13;;;;;;;;;;5019099;28;20476;-87
2021/12/23 12:14:47;;;;;;;94.43;25.42;;;;;;;;;;5018925;28;20037;-86
2021/12/23 12:17:26;;;;;;;80.47;25.45;;;;;;;;;;5033167;28;20499;-86
2021/12/23 12:19:53;;;;;;;73.38;22.17;;;;;;;;;;5055050;28;20036;-87
2021/12/23 12:22:38;;;;;;;69.70;21.10;;;;;;;;;;5055187;28;20028;-87
2021/12/23 12:25:05;;;;;;;72.65;21.52;;;;;;;;;;5055082;28;20499;-86
2021/12/23 12:32:38;;;;;;;64.68;20.15;;;;;;;;;;5221088;22;20507;-86
2021/12/23 12:35:12;;;;;;;74.00;21.15;;;;;;;;;;5017895;28;20038;-85
2021/12/23 12:37:44;;;;;;;66.20;21.77;;;;;;;;;;5018253;28;20052;-85
2021/12/23 12:40:11;;;;;;;51.30;16.52;;;;;;;;;;5018260;28;20036;-86
2021/12/23 12:42:44;;;;;;;56.63;16.77;;;;;;;;;;5035913;28;20518;-86
2021/12/23 12:45:15;;;;;;;65.30;18.02;;;;;;;;;;5018265;28;20080;-85
2021/12/23 12:47:49;;;;;;;65.43;21.33;;;;;;;;;;5018098;28;20030;-85
2021/12/23 12:50:20;;;;;;;55.35;20.88;;;;;;;;;;5017988;28;20039;-87
2021/12/23 12:52:47;;;;;;;70.72;20.10;;;;;;;;;;5018088;28;20045;-86
2021/12/23 12:55:15;;;;;;;65.68;20.30;;;;;;;;;;5035537;28;20110;-85
2021/12/23 12:57:46;;;;;;;53.60;18.45;;;;;;;;;;5017978;28;20040;-86
2021/12/23 13:00:26;;;;;;;65.90;20.08;;;;;;;;;;5017785;28;20362;-85
2021/12/23 13:03:01;;;;;;;57.70;20.70;;;;;;;;;;5035665;28;20076;-86
2021/12/23 13:05:29;;;;;;;55.55;17.45;;;;;;;;;;5035393;28;20037;-86
2021/12/23 13:07:55;;;;;;;44.53;16.13;;;;;;;;;;5017672;28;20040;-85
2021/12/23 13:10:28;;;;;;;51.42;17.95;;;;;;;;;;5017539;28;20481;-85
2021/12/23 13:13:00;;;;;;;87.07;43.28;;;;;;;;;;5017649;28;20033;-85
2021/12/23 13:15:29;;;;;;;145.90;80.75;;;;;;;;;;5035382;28;20172;-87
2021/12/23 13:18:06;;;;;;;117.78;60.90;;;;;;;;;;5017575;28;20120;-86
2021/12/23 13:20:44;;;;;;;116.07;60.22;;;;;;;;;;5017518;28;20064;-85
2021/12/23 13:23:13;;;;;;;79.45;31.35;;;;;;;;;;5017463;28;20030;-85
2021/12/23 13:26:06;;;;;;;69.15;25.92;;;;;;;;;;5018010;28;20125;-86
2021/12/23 13:28:35;;;;;;;54.17;19.45;;;;;;;;;;4994855;28;20133;-85
2021/12/23 13:31:03;;;;;;;58.00;18.10;;;;;;;;;;5018194;28;20050;-87
2021/12/23 13:33:30;;;;;;;59.70;21.33;;;;;;;;;;5035176;28;20030;-87
2021/12/23 13:35:58;;;;;;;58.50;19.42;;;;;;;;;;5017144;28;20115;-86
2021/12/23 13:38:31;;;;;;;116.75;36.95;;;;;;;;;;5035169;28;20495;-86
2021/12/23 13:41:10;;;;;;;95.15;29.85;;;;;;;;;;5017109;28;20056;-87
2021/12/23 13:43:37;;;;;;;97.25;29.58;;;;;;;;;;5017081;28;20032;-85
2021/12/23 13:46:07;;;;;;;60.60;17.73;;;;;;;;;;5017140;28;20033;-86
2021/12/23 13:48:46;;;;;;;46.72;15.43;;;;;;;;;;5017110;28;20029;-86
2021/12/23 13:51:14;;;;;;;51.75;16.30;;;;;;;;;;5017131;28;20087;-87
2021/12/23 13:53:40;;;;;;;45.03;16.23;;;;;;;;;;5034710;28;20033;-86
2021/12/23 13:56:13;;;;;;;59.28;18.70;;;;;;;;;;5016855;28;20065;-87
2021/12/23 13:58:40;;;;;;;53.78;19.90;;;;;;;;;;5017001;28;20060;-86
2021/12/23 14:01:07;;;;;;;72.53;25.42;;;;;;;;;;5016836;28;20101;-86
2021/12/23 14:03:33;;;;;;;61.17;21.73;;;;;;;;;;5016977;28;20034;-86
2021/12/23 14:06:01;;;;;;;47.05;17.98;;;;;;;;;;5016663;28;20120;-85
2021/12/23 14:08:30;;;;;;;75.20;28.17;;;;;;;;;;5000046;28;20037;-86
2021/12/23 14:10:58;;;;;;;73.72;25.23;;;;;;;;;;5016706;28;20033;-86
2021/12/23 14:13:25;;;;;;;68.45;25.45;;;;;;;;;;5016709;28;20036;-87
2021/12/23 14:15:52;;;;;;;70.65;25.50;;;;;;;;;;5016579;28;20036;-85
2021/12/23 14:23:28;;;;;;;74.05;25.85;;;;;;;;;;5034184;28;20388;-86
2021/12/23 14:25:54;;;;;;;57.20;20.70;;;;;;;;;;5016468;28;20435;-86
2021/12/23 14:28:23;;;;;;;58.28;20.25;;;;;;;;;;5016357;28;20040;-86
2021/12/23 14:30:52;;;;;;;60.17;21.05;;;;;;;;;;5016039;28;20037;-86
2021/12/23 14:33:20;;;;;;;51.22;16.73;;;;;;;;;;5016079;28;20496;-86
2021/12/23 14:36:12;;;;;;;44.78;14.77;;;;;;;;;;5033955;28;20479;-86
2021/12/23 14:38:43;;;;;;;53.10;17.90;;;;;;;;;;5012813;28;20030;-86
2021/12/23 14:41:09;;;;;;;52.38;21.85;;;;;;;;;;5015875;28;20053;-86
2021/12/23 14:43:51;;;;;;;80.93;32.38;;;;;;;;;;5016109;28;20092;-87
2021/12/23 14:46:17;;;;;;;77.85;32.67;;;;;;;;;;5016828;28;20037;-86
2021/12/23 14:51:31;;;;;;;90.70;37.85;;;;;;;;;;5033806;28;20030;-86
2021/12/23 14:54:12;;;;;;;79.47;37.42;;;;;;;;;;5015955;28;20484;-86
2021/12/23 14:56:40;;;;;;;102.68;44.30;;;;;;;;;;5016163;28;20556;-86
2021/12/23 14:59:10;;;;;;;102.90;46.17;;;;;;;;;;5015866;28;20038;-85
2021/12/23 15:01:38;;;;;;;112.88;46.50;;;;;;;;;;5016259;28;20038;-86
2021/12/23 15:04:06;;;;;;;110.43;47.55;;;;;;;;;;5016025;28;20068;-85
2021/12/23 15:06:32;;;;;;;116.93;47.72;;;;;;;;;;5033606;28;20104;-85
2021/12/23 15:08:58;;;;;;;120.43;49.20;;;;;;;;;;5015894;28;20200;-86
2021/12/23 15:11:32;;;;;;;115.63;49.38;;;;;;;;;;5033432;28;20030;-86
2021/12/23 15:13:59;;;;;;;116.80;49.30;;;;;;;;;;5033707;28;20029;-85
2021/12/23 15:16:30;;;;;;;120.28;51.40;;;;;;;;;;5033614;28;20104;-86
2021/12/23 15:19:24;;;;;;;114.90;48.28;;;;;;;;;;5015789;28;20403;-86
2021/12/23 15:21:53;;;;;;;118.13;49.15;;;;;;;;;;5037602;28;20033;-85
2021/12/23 15:24:25;;;;;;;104.53;45.70;;;;;;;;;;5019503;28;20041;-85
2021/12/23 15:27:01;;;;;;;120.75;49.47;;;;;;;;;;5019432;28;20391;-85
2021/12/23 15:29:29;;;;;;;110.78;47.72;;;;;;;;;;5019262;28;20476;-86
2021/12/23 15:31:58;;;;;;;134.45;52.38;;;;;;;;;;5019544;28;20559;-85
2021/12/23 15:34:27;;;;;;;127.60;50.88;;;;;;;;;;5037504;28;20036;-85
2021/12/23 15:36:54;;;;;;;122.88;50.50;;;;;;;;;;5019198;28;20039;-85
2021/12/23 15:39:38;;;;;;;117.05;48.20;;;;;;;;;;5019121;28;20116;-85
2021/12/23 15:42:07;;;;;;;112.38;44.38;;;;;;;;;;5019252;28;20076;-85
2021/12/23 15:44:34;;;;;;;108.93;44.00;;;;;;;;;;5019304;28;20034;-86
2021/12/23 15:47:02;;;;;;;131.45;54.80;;;;;;;;;;5019104;28;20044;-85
2021/12/23 15:49:28;;;;;;;140.80;56.97;;;;;;;;;;5018995;28;20101;-85
2021/12/23 15:51:55;;;;;;;153.50;62.95;;;;;;;;;;5019063;28;20025;-85
2021/12/23 15:54:22;;;;;;;162.38;63.63;;;;;;;;;;5018905;28;20025;-85
2021/12/23 15:56:50;;;;;;;154.75;65.80;;;;;;;;;;5019211;28;20057;-85
2021/12/23 15:59:16;;;;;;;155.23;58.97;;;;;;;;;;5018824;28;20432;-85
2021/12/23 16:01:42;;;;;;;132.70;52.78;;;;;;;;;;5018799;28;20034;-85
2021/12/23 16:04:13;;;;;;;122.35;52.85;;;;;;;;;;5018909;28;20065;-85
2021/12/23 16:09:25;;;;;;;125.80;45.25;;;;;;;;;;5036619;28;20044;-86
2021/12/23 16:11:52;;;;;;;119.18;43.70;;;;;;;;;;5036889;28;20030;-86
2021/12/23 16:14:21;;;;;;;104.47;41.45;;;;;;;;;;5019088;28;20120;-85
2021/12/23 16:16:51;;;;;;;104.78;37.03;;;;;;;;;;5036333;28;20068;-85
2021/12/23 16:19:17;;;;;;;96.57;37.97;;;;;;;;;;5018672;28;20132;-84
2021/12/23 16:21:43;;;;;;;98.88;35.15;;;;;;;;;;5018471;28;20391;-85
2021/12/23 16:24:10;;;;;;;85.63;37.30;;;;;;;;;;5035998;28;20057;-85
2021/12/23 16:26:37;;;;;;;95.40;35.80;;;;;;;;;;5018501;28;20041;-85
2021/12/23 16:29:03;;;;;;;92.15;35.72;;;;;;;;;;5002178;28;20038;-85
2021/12/23 16:31:30;;;;;;;85.30;32.83;;;;;;;;;;5017545;28;20053;-85